sensor_id;sensor_type;location;lat;lon;timestamp;P1;durP1;ratioP1;P2;durP2;ratioP2
803;SDS011;25687;49.976;8.240;2023-11-21T00:01:37;5.90;;;2.60;;
803;SDS011;25687;49.976;8.240;2023-11-21T00:04:02;4.37;;;2.70;;
803;SDS011;25687;49.976;8.240;2023-11-21T00:06:28;3.53;;;2.43;;
803;SDS011;25687;49.976;8.240;2023-11-21T00:08:55;5.20;;;3.07;;
803;SDS011;25687;49.976;8.240;2023-11-21T00:11:20;6.00;;;2.60;;
803;SDS011;25687;49.976;8.240;2023-11-21T00:13:46;8.27;;;4.00;;
803;SDS011;25687;49.976;8.240;2023-11-21T00:16:11;3.80;;;3.00;;
803;SDS011;25687;49.976;8.240;2023-11-21T00:18:36;7.00;;;2.93;;
803;SDS011;25687;49.976;8.240;2023-11-21T00:21:02;5.10;;;2.83;;
803;SDS011;25687;49.976;8.240;2023-11-21T00:23:28;5.57;;;3.00;;
803;SDS011;25687;49.976;8.240;2023-11-21T00:25:54;8.17;;;3.20;;
803;SDS011;25687;49.976;8.240;2023-11-21T00:28:19;5.20;;;2.90;;
803;SDS011;25687;49.976;8.240;2023-11-21T00:30:44;5.30;;;2.53;;
803;SDS011;25687;49.976;8.240;2023-11-21T00:33:10;6.63;;;2.97;;
803;SDS011;25687;49.976;8.240;2023-11-21T00:35:35;3.40;;;2.43;;
803;SDS011;25687;49.976;8.240;2023-11-21T00:38:00;6.83;;;2.77;;
803;SDS011;25687;49.976;8.240;2023-11-21T00:40:26;5.57;;;2.50;;
803;SDS011;25687;49.976;8.240;2023-11-21T00:42:51;4.83;;;2.53;;
803;SDS011;25687;49.976;8.240;2023-11-21T00:45:16;3.90;;;2.40;;
803;SDS011;25687;49.976;8.240;2023-11-21T00:47:41;4.60;;;2.47;;
803;SDS011;25687;49.976;8.240;2023-11-21T00:50:07;3.97;;;2.33;;
803;SDS011;25687;49.976;8.240;2023-11-21T00:52:33;4.63;;;2.60;;
803;SDS011;25687;49.976;8.240;2023-11-21T00:54:58;4.13;;;2.20;;
803;SDS011;25687;49.976;8.240;2023-11-21T00:57:25;7.10;;;2.10;;
803;SDS011;25687;49.976;8.240;2023-11-21T00:59:51;3.93;;;2.30;;
803;SDS011;25687;49.976;8.240;2023-11-21T01:02:16;3.43;;;2.00;;
803;SDS011;25687;49.976;8.240;2023-11-21T01:04:41;3.37;;;2.20;;
803;SDS011;25687;49.976;8.240;2023-11-21T01:07:07;3.73;;;1.83;;
803;SDS011;25687;49.976;8.240;2023-11-21T01:09:32;3.53;;;2.30;;
803;SDS011;25687;49.976;8.240;2023-11-21T01:11:58;6.80;;;2.63;;
803;SDS011;25687;49.976;8.240;2023-11-21T01:14:24;2.93;;;1.97;;
803;SDS011;25687;49.976;8.240;2023-11-21T01:16:51;4.13;;;1.87;;
803;SDS011;25687;49.976;8.240;2023-11-21T01:19:17;3.23;;;1.83;;
803;SDS011;25687;49.976;8.240;2023-11-21T01:21:42;5.00;;;2.00;;
803;SDS011;25687;49.976;8.240;2023-11-21T01:24:07;4.00;;;2.00;;
803;SDS011;25687;49.976;8.240;2023-11-21T01:26:33;3.83;;;2.00;;
803;SDS011;25687;49.976;8.240;2023-11-21T01:28:58;3.13;;;2.33;;
803;SDS011;25687;49.976;8.240;2023-11-21T01:31:24;4.07;;;1.80;;
803;SDS011;25687;49.976;8.240;2023-11-21T01:33:52;4.73;;;2.33;;
803;SDS011;25687;49.976;8.240;2023-11-21T01:36:17;6.30;;;2.40;;
803;SDS011;25687;49.976;8.240;2023-11-21T01:38:43;5.17;;;2.47;;
803;SDS011;25687;49.976;8.240;2023-11-21T01:41:08;7.23;;;3.17;;
803;SDS011;25687;49.976;8.240;2023-11-21T01:43:36;5.80;;;2.83;;
803;SDS011;25687;49.976;8.240;2023-11-21T01:46:02;4.27;;;2.73;;
803;SDS011;25687;49.976;8.240;2023-11-21T01:48:29;5.73;;;3.50;;
803;SDS011;25687;49.976;8.240;2023-11-21T01:50:54;5.93;;;3.40;;
803;SDS011;25687;49.976;8.240;2023-11-21T01:53:20;6.30;;;3.30;;
803;SDS011;25687;49.976;8.240;2023-11-21T01:55:45;6.13;;;3.30;;
803;SDS011;25687;49.976;8.240;2023-11-21T01:58:11;5.70;;;3.03;;
803;SDS011;25687;49.976;8.240;2023-11-21T02:00:37;7.03;;;4.37;;
803;SDS011;25687;49.976;8.240;2023-11-21T02:03:03;6.73;;;4.23;;
803;SDS011;25687;49.976;8.240;2023-11-21T02:05:29;5.37;;;4.30;;
803;SDS011;25687;49.976;8.240;2023-11-21T02:07:54;8.43;;;5.00;;
803;SDS011;25687;49.976;8.240;2023-11-21T02:10:19;9.73;;;5.37;;
803;SDS011;25687;49.976;8.240;2023-11-21T02:12:51;7.07;;;5.20;;
803;SDS011;25687;49.976;8.240;2023-11-21T02:15:17;7.60;;;5.47;;
803;SDS011;25687;49.976;8.240;2023-11-21T02:17:45;11.13;;;5.77;;
803;SDS011;25687;49.976;8.240;2023-11-21T02:20:12;7.10;;;6.30;;
803;SDS011;25687;49.976;8.240;2023-11-21T02:22:42;8.37;;;7.13;;
803;SDS011;25687;49.976;8.240;2023-11-21T02:25:24;12.30;;;8.00;;
803;SDS011;25687;49.976;8.240;2023-11-21T02:27:50;11.20;;;8.47;;
803;SDS011;25687;49.976;8.240;2023-11-21T02:30:16;10.07;;;9.07;;
803;SDS011;25687;49.976;8.240;2023-11-21T02:32:41;11.67;;;9.23;;
803;SDS011;25687;49.976;8.240;2023-11-21T02:35:07;11.53;;;10.23;;
803;SDS011;25687;49.976;8.240;2023-11-21T02:37:33;10.13;;;8.97;;
803;SDS011;25687;49.976;8.240;2023-11-21T02:40:00;10.67;;;9.13;;
803;SDS011;25687;49.976;8.240;2023-11-21T02:42:25;10.63;;;8.97;;
803;SDS011;25687;49.976;8.240;2023-11-21T02:44:51;9.80;;;8.03;;
803;SDS011;25687;49.976;8.240;2023-11-21T02:47:16;8.97;;;8.07;;
803;SDS011;25687;49.976;8.240;2023-11-21T02:49:42;12.90;;;7.70;;
803;SDS011;25687;49.976;8.240;2023-11-21T02:52:07;8.23;;;7.30;;
803;SDS011;25687;49.976;8.240;2023-11-21T02:54:33;10.50;;;6.87;;
803;SDS011;25687;49.976;8.240;2023-11-21T02:57:01;9.73;;;6.97;;
803;SDS011;25687;49.976;8.240;2023-11-21T02:59:27;8.70;;;6.73;;
803;SDS011;25687;49.976;8.240;2023-11-21T03:01:52;10.07;;;7.53;;
803;SDS011;25687;49.976;8.240;2023-11-21T03:04:18;8.53;;;7.37;;
803;SDS011;25687;49.976;8.240;2023-11-21T03:06:44;8.43;;;7.37;;
803;SDS011;25687;49.976;8.240;2023-11-21T03:09:10;8.97;;;7.93;;
803;SDS011;25687;49.976;8.240;2023-11-21T03:11:37;10.70;;;8.93;;
803;SDS011;25687;49.976;8.240;2023-11-21T03:14:02;13.97;;;9.50;;
803;SDS011;25687;49.976;8.240;2023-11-21T03:16:27;12.30;;;11.10;;
803;SDS011;25687;49.976;8.240;2023-11-21T03:18:53;11.27;;;10.13;;
803;SDS011;25687;49.976;8.240;2023-11-21T03:21:19;12.30;;;11.00;;
803;SDS011;25687;49.976;8.240;2023-11-21T03:23:44;11.57;;;10.47;;
803;SDS011;25687;49.976;8.240;2023-11-21T03:26:13;11.37;;;9.87;;
803;SDS011;25687;49.976;8.240;2023-11-21T03:28:38;13.40;;;10.60;;
803;SDS011;25687;49.976;8.240;2023-11-21T03:31:04;12.60;;;11.30;;
803;SDS011;25687;49.976;8.240;2023-11-21T03:33:31;13.70;;;11.83;;
803;SDS011;25687;49.976;8.240;2023-11-21T03:35:57;12.80;;;11.47;;
803;SDS011;25687;49.976;8.240;2023-11-21T03:38:22;14.30;;;11.80;;
803;SDS011;25687;49.976;8.240;2023-11-21T03:40:48;12.90;;;11.17;;
803;SDS011;25687;49.976;8.240;2023-11-21T03:43:14;12.73;;;11.47;;
803;SDS011;25687;49.976;8.240;2023-11-21T03:45:39;11.80;;;10.70;;
803;SDS011;25687;49.976;8.240;2023-11-21T03:48:05;11.03;;;9.93;;
803;SDS011;25687;49.976;8.240;2023-11-21T03:50:31;11.73;;;10.37;;
803;SDS011;25687;49.976;8.240;2023-11-21T03:52:56;12.47;;;11.10;;
803;SDS011;25687;49.976;8.240;2023-11-21T03:55:22;13.40;;;10.70;;
803;SDS011;25687;49.976;8.240;2023-11-21T03:57:49;17.47;;;12.67;;
803;SDS011;25687;49.976;8.240;2023-11-21T04:00:14;13.23;;;11.83;;
803;SDS011;25687;49.976;8.240;2023-11-21T04:02:41;13.93;;;11.97;;
803;SDS011;25687;49.976;8.240;2023-11-21T04:05:06;15.60;;;12.57;;
803;SDS011;25687;49.976;8.240;2023-11-21T04:07:32;14.37;;;11.80;;
803;SDS011;25687;49.976;8.240;2023-11-21T04:09:57;14.10;;;12.10;;
803;SDS011;25687;49.976;8.240;2023-11-21T04:12:22;16.87;;;12.47;;
803;SDS011;25687;49.976;8.240;2023-11-21T04:14:48;14.03;;;11.43;;
803;SDS011;25687;49.976;8.240;2023-11-21T04:17:13;16.13;;;12.10;;
803;SDS011;25687;49.976;8.240;2023-11-21T04:19:38;18.53;;;12.17;;
803;SDS011;25687;49.976;8.240;2023-11-21T04:22:04;14.50;;;12.23;;
803;SDS011;25687;49.976;8.240;2023-11-21T04:24:29;13.50;;;11.80;;
803;SDS011;25687;49.976;8.240;2023-11-21T04:26:54;15.53;;;11.37;;
803;SDS011;25687;49.976;8.240;2023-11-21T04:29:20;12.73;;;11.23;;
803;SDS011;25687;49.976;8.240;2023-11-21T04:31:45;10.63;;;9.53;;
803;SDS011;25687;49.976;8.240;2023-11-21T04:34:11;13.27;;;10.80;;
803;SDS011;25687;49.976;8.240;2023-11-21T04:36:36;9.87;;;8.80;;
803;SDS011;25687;49.976;8.240;2023-11-21T04:39:02;10.27;;;9.27;;
803;SDS011;25687;49.976;8.240;2023-11-21T04:41:27;9.00;;;8.10;;
803;SDS011;25687;49.976;8.240;2023-11-21T04:43:52;12.07;;;9.07;;
803;SDS011;25687;49.976;8.240;2023-11-21T04:46:18;8.57;;;7.77;;
803;SDS011;25687;49.976;8.240;2023-11-21T04:48:43;7.50;;;6.80;;
803;SDS011;25687;49.976;8.240;2023-11-21T04:51:09;7.83;;;7.03;;
803;SDS011;25687;49.976;8.240;2023-11-21T04:53:34;7.53;;;6.50;;
803;SDS011;25687;49.976;8.240;2023-11-21T04:56:00;6.53;;;5.93;;
803;SDS011;25687;49.976;8.240;2023-11-21T04:58:25;6.77;;;6.13;;
803;SDS011;25687;49.976;8.240;2023-11-21T05:00:50;7.03;;;6.30;;
803;SDS011;25687;49.976;8.240;2023-11-21T05:03:16;6.87;;;6.17;;
803;SDS011;25687;49.976;8.240;2023-11-21T05:05:41;7.73;;;6.93;;
803;SDS011;25687;49.976;8.240;2023-11-21T05:08:06;7.07;;;6.47;;
803;SDS011;25687;49.976;8.240;2023-11-21T05:10:33;6.73;;;6.03;;
803;SDS011;25687;49.976;8.240;2023-11-21T05:12:58;8.67;;;6.63;;
803;SDS011;25687;49.976;8.240;2023-11-21T05:15:23;7.87;;;6.43;;
803;SDS011;25687;49.976;8.240;2023-11-21T05:17:49;8.13;;;6.50;;
803;SDS011;25687;49.976;8.240;2023-11-21T05:20:17;6.63;;;6.00;;
803;SDS011;25687;49.976;8.240;2023-11-21T05:22:45;6.33;;;5.60;;
803;SDS011;25687;49.976;8.240;2023-11-21T05:25:11;6.40;;;5.80;;
803;SDS011;25687;49.976;8.240;2023-11-21T05:27:37;7.67;;;6.73;;
803;SDS011;25687;49.976;8.240;2023-11-21T05:30:03;7.13;;;6.27;;
803;SDS011;25687;49.976;8.240;2023-11-21T05:32:34;6.47;;;5.87;;
803;SDS011;25687;49.976;8.240;2023-11-21T05:34:59;7.03;;;6.37;;
803;SDS011;25687;49.976;8.240;2023-11-21T05:37:25;6.23;;;5.70;;
803;SDS011;25687;49.976;8.240;2023-11-21T05:39:52;6.90;;;6.30;;
803;SDS011;25687;49.976;8.240;2023-11-21T05:42:18;6.30;;;5.47;;
803;SDS011;25687;49.976;8.240;2023-11-21T05:44:43;8.40;;;6.57;;
803;SDS011;25687;49.976;8.240;2023-11-21T05:47:09;6.93;;;6.07;;
803;SDS011;25687;49.976;8.240;2023-11-21T05:49:34;10.20;;;6.40;;
803;SDS011;25687;49.976;8.240;2023-11-21T05:52:00;7.93;;;6.73;;
803;SDS011;25687;49.976;8.240;2023-11-21T05:54:25;7.63;;;5.90;;
803;SDS011;25687;49.976;8.240;2023-11-21T05:56:51;6.53;;;5.93;;
803;SDS011;25687;49.976;8.240;2023-11-21T05:59:16;11.93;;;6.20;;
803;SDS011;25687;49.976;8.240;2023-11-21T06:01:41;8.43;;;5.77;;
803;SDS011;25687;49.976;8.240;2023-11-21T06:04:07;6.47;;;5.33;;
803;SDS011;25687;49.976;8.240;2023-11-21T06:06:34;9.57;;;5.80;;
803;SDS011;25687;49.976;8.240;2023-11-21T06:09:00;7.50;;;5.53;;
803;SDS011;25687;49.976;8.240;2023-11-21T06:11:25;6.37;;;5.37;;
803;SDS011;25687;49.976;8.240;2023-11-21T06:13:50;6.20;;;5.40;;
803;SDS011;25687;49.976;8.240;2023-11-21T06:16:15;5.67;;;5.07;;
803;SDS011;25687;49.976;8.240;2023-11-21T06:18:43;7.07;;;5.50;;
803;SDS011;25687;49.976;8.240;2023-11-21T06:21:10;7.00;;;5.93;;
803;SDS011;25687;49.976;8.240;2023-11-21T06:23:35;7.60;;;5.70;;
803;SDS011;25687;49.976;8.240;2023-11-21T06:26:01;6.80;;;5.70;;
803;SDS011;25687;49.976;8.240;2023-11-21T06:28:26;11.07;;;5.97;;
803;SDS011;25687;49.976;8.240;2023-11-21T06:30:51;6.40;;;5.77;;
803;SDS011;25687;49.976;8.240;2023-11-21T06:33:18;6.60;;;5.50;;
803;SDS011;25687;49.976;8.240;2023-11-21T06:35:43;7.63;;;6.10;;
803;SDS011;25687;49.976;8.240;2023-11-21T06:38:09;7.20;;;6.30;;
803;SDS011;25687;49.976;8.240;2023-11-21T06:40:35;7.07;;;6.13;;
803;SDS011;25687;49.976;8.240;2023-11-21T06:43:00;8.03;;;6.50;;
803;SDS011;25687;49.976;8.240;2023-11-21T06:45:25;9.00;;;7.23;;
803;SDS011;25687;49.976;8.240;2023-11-21T06:47:51;7.87;;;6.53;;
803;SDS011;25687;49.976;8.240;2023-11-21T06:50:16;8.20;;;6.87;;
803;SDS011;25687;49.976;8.240;2023-11-21T06:52:42;9.10;;;6.77;;
803;SDS011;25687;49.976;8.240;2023-11-21T06:55:08;8.27;;;7.43;;
803;SDS011;25687;49.976;8.240;2023-11-21T06:57:33;8.23;;;7.03;;
803;SDS011;25687;49.976;8.240;2023-11-21T06:59:58;8.43;;;6.70;;
803;SDS011;25687;49.976;8.240;2023-11-21T07:02:24;8.93;;;7.07;;
803;SDS011;25687;49.976;8.240;2023-11-21T07:04:50;7.90;;;6.63;;
803;SDS011;25687;49.976;8.240;2023-11-21T07:07:15;7.57;;;6.20;;
803;SDS011;25687;49.976;8.240;2023-11-21T07:09:40;8.00;;;6.40;;
803;SDS011;25687;49.976;8.240;2023-11-21T07:12:05;6.47;;;5.87;;
803;SDS011;25687;49.976;8.240;2023-11-21T07:14:35;7.60;;;5.60;;
803;SDS011;25687;49.976;8.240;2023-11-21T07:17:02;7.17;;;6.10;;
803;SDS011;25687;49.976;8.240;2023-11-21T07:19:27;7.77;;;5.70;;
803;SDS011;25687;49.976;8.240;2023-11-21T07:21:53;7.37;;;5.53;;
803;SDS011;25687;49.976;8.240;2023-11-21T07:24:18;7.20;;;5.93;;
803;SDS011;25687;49.976;8.240;2023-11-21T07:26:43;8.67;;;5.57;;
803;SDS011;25687;49.976;8.240;2023-11-21T07:29:09;6.90;;;5.30;;
803;SDS011;25687;49.976;8.240;2023-11-21T07:31:34;5.93;;;5.23;;
803;SDS011;25687;49.976;8.240;2023-11-21T07:33:59;5.80;;;5.20;;
803;SDS011;25687;49.976;8.240;2023-11-21T07:36:25;8.77;;;5.37;;
803;SDS011;25687;49.976;8.240;2023-11-21T07:38:51;6.77;;;5.80;;
803;SDS011;25687;49.976;8.240;2023-11-21T07:41:17;6.93;;;6.23;;
803;SDS011;25687;49.976;8.240;2023-11-21T07:43:43;7.00;;;5.93;;
803;SDS011;25687;49.976;8.240;2023-11-21T07:46:09;6.53;;;5.73;;
803;SDS011;25687;49.976;8.240;2023-11-21T07:48:37;8.13;;;6.00;;
803;SDS011;25687;49.976;8.240;2023-11-21T07:51:03;7.03;;;5.70;;
803;SDS011;25687;49.976;8.240;2023-11-21T07:53:28;7.53;;;5.83;;
803;SDS011;25687;49.976;8.240;2023-11-21T07:55:55;9.60;;;5.37;;
803;SDS011;25687;49.976;8.240;2023-11-21T07:58:21;7.37;;;5.97;;
803;SDS011;25687;49.976;8.240;2023-11-21T08:00:46;8.37;;;5.83;;
803;SDS011;25687;49.976;8.240;2023-11-21T08:03:13;6.80;;;5.70;;
803;SDS011;25687;49.976;8.240;2023-11-21T08:05:38;7.40;;;6.37;;
803;SDS011;25687;49.976;8.240;2023-11-21T08:08:04;6.20;;;5.70;;
803;SDS011;25687;49.976;8.240;2023-11-21T08:10:29;7.83;;;6.10;;
803;SDS011;25687;49.976;8.240;2023-11-21T08:12:55;6.90;;;6.07;;
803;SDS011;25687;49.976;8.240;2023-11-21T08:15:20;6.40;;;5.30;;
803;SDS011;25687;49.976;8.240;2023-11-21T08:17:46;7.67;;;6.13;;
803;SDS011;25687;49.976;8.240;2023-11-21T08:20:12;8.90;;;6.30;;
803;SDS011;25687;49.976;8.240;2023-11-21T08:22:37;10.13;;;6.10;;
803;SDS011;25687;49.976;8.240;2023-11-21T08:25:02;6.20;;;5.60;;
803;SDS011;25687;49.976;8.240;2023-11-21T08:27:31;6.27;;;5.10;;
803;SDS011;25687;49.976;8.240;2023-11-21T08:29:56;5.53;;;4.80;;
803;SDS011;25687;49.976;8.240;2023-11-21T08:32:22;5.77;;;4.57;;
803;SDS011;25687;49.976;8.240;2023-11-21T08:34:47;5.70;;;5.07;;
803;SDS011;25687;49.976;8.240;2023-11-21T08:37:15;7.07;;;5.17;;
803;SDS011;25687;49.976;8.240;2023-11-21T08:39:41;8.77;;;5.87;;
803;SDS011;25687;49.976;8.240;2023-11-21T08:42:06;6.17;;;5.57;;
803;SDS011;25687;49.976;8.240;2023-11-21T08:44:33;7.23;;;5.73;;
803;SDS011;25687;49.976;8.240;2023-11-21T08:46:58;7.40;;;6.00;;
803;SDS011;25687;49.976;8.240;2023-11-21T08:49:23;9.30;;;5.20;;
803;SDS011;25687;49.976;8.240;2023-11-21T08:51:51;6.20;;;4.93;;
803;SDS011;25687;49.976;8.240;2023-11-21T08:54:16;5.87;;;4.63;;
803;SDS011;25687;49.976;8.240;2023-11-21T08:56:43;5.07;;;4.57;;
803;SDS011;25687;49.976;8.240;2023-11-21T08:59:08;5.73;;;4.30;;
803;SDS011;25687;49.976;8.240;2023-11-21T09:01:33;10.37;;;4.50;;
803;SDS011;25687;49.976;8.240;2023-11-21T09:03:59;9.03;;;4.67;;
803;SDS011;25687;49.976;8.240;2023-11-21T09:06:24;9.00;;;4.60;;
803;SDS011;25687;49.976;8.240;2023-11-21T09:08:49;13.30;;;5.10;;
803;SDS011;25687;49.976;8.240;2023-11-21T09:11:15;9.27;;;4.37;;
803;SDS011;25687;49.976;8.240;2023-11-21T09:13:40;8.30;;;4.20;;
803;SDS011;25687;49.976;8.240;2023-11-21T09:16:05;6.43;;;4.03;;
803;SDS011;25687;49.976;8.240;2023-11-21T09:18:31;9.33;;;4.60;;
803;SDS011;25687;49.976;8.240;2023-11-21T09:20:57;5.67;;;3.43;;
803;SDS011;25687;49.976;8.240;2023-11-21T09:23:22;8.57;;;3.93;;
803;SDS011;25687;49.976;8.240;2023-11-21T09:25:48;3.77;;;2.80;;
803;SDS011;25687;49.976;8.240;2023-11-21T09:28:15;7.23;;;2.90;;
803;SDS011;25687;49.976;8.240;2023-11-21T09:30:42;6.00;;;3.70;;
803;SDS011;25687;49.976;8.240;2023-11-21T09:33:08;5.67;;;3.30;;
803;SDS011;25687;49.976;8.240;2023-11-21T09:35:35;7.43;;;3.20;;
803;SDS011;25687;49.976;8.240;2023-11-21T09:38:04;7.90;;;3.43;;
803;SDS011;25687;49.976;8.240;2023-11-21T09:40:35;7.53;;;3.60;;
803;SDS011;25687;49.976;8.240;2023-11-21T09:43:02;8.77;;;3.37;;
803;SDS011;25687;49.976;8.240;2023-11-21T09:45:34;7.23;;;3.60;;
803;SDS011;25687;49.976;8.240;2023-11-21T09:48:00;4.80;;;3.23;;
803;SDS011;25687;49.976;8.240;2023-11-21T09:50:26;6.60;;;3.23;;
803;SDS011;25687;49.976;8.240;2023-11-21T09:52:54;6.27;;;3.30;;
803;SDS011;25687;49.976;8.240;2023-11-21T09:55:22;5.20;;;3.23;;
803;SDS011;25687;49.976;8.240;2023-11-21T09:57:51;6.23;;;3.73;;
803;SDS011;25687;49.976;8.240;2023-11-21T10:00:18;5.47;;;3.77;;
803;SDS011;25687;49.976;8.240;2023-11-21T10:02:45;5.07;;;3.33;;
803;SDS011;25687;49.976;8.240;2023-11-21T10:05:12;5.20;;;3.47;;
803;SDS011;25687;49.976;8.240;2023-11-21T10:07:39;6.40;;;3.70;;
803;SDS011;25687;49.976;8.240;2023-11-21T10:10:06;7.80;;;3.77;;
803;SDS011;25687;49.976;8.240;2023-11-21T10:12:33;6.60;;;3.30;;
803;SDS011;25687;49.976;8.240;2023-11-21T10:15:00;6.60;;;4.20;;
803;SDS011;25687;49.976;8.240;2023-11-21T10:17:28;5.93;;;3.57;;
803;SDS011;25687;49.976;8.240;2023-11-21T10:20:01;4.80;;;3.60;;
803;SDS011;25687;49.976;8.240;2023-11-21T10:22:31;9.00;;;4.33;;
803;SDS011;25687;49.976;8.240;2023-11-21T10:24:56;8.87;;;3.83;;
803;SDS011;25687;49.976;8.240;2023-11-21T10:27:22;7.33;;;4.23;;
803;SDS011;25687;49.976;8.240;2023-11-21T10:29:50;5.47;;;3.80;;
803;SDS011;25687;49.976;8.240;2023-11-21T10:32:16;5.97;;;3.73;;
803;SDS011;25687;49.976;8.240;2023-11-21T10:34:41;5.67;;;3.97;;
803;SDS011;25687;49.976;8.240;2023-11-21T10:37:13;5.10;;;3.47;;
803;SDS011;25687;49.976;8.240;2023-11-21T10:39:38;7.20;;;3.43;;
803;SDS011;25687;49.976;8.240;2023-11-21T10:42:04;6.93;;;3.63;;
803;SDS011;25687;49.976;8.240;2023-11-21T10:44:32;6.50;;;3.17;;
803;SDS011;25687;49.976;8.240;2023-11-21T10:46:59;4.47;;;3.00;;
803;SDS011;25687;49.976;8.240;2023-11-21T10:49:26;7.30;;;3.40;;
803;SDS011;25687;49.976;8.240;2023-11-21T10:51:52;6.03;;;2.73;;
803;SDS011;25687;49.976;8.240;2023-11-21T10:54:22;5.27;;;2.53;;
803;SDS011;25687;49.976;8.240;2023-11-21T10:56:49;4.10;;;3.03;;
803;SDS011;25687;49.976;8.240;2023-11-21T10:59:18;8.03;;;2.93;;
803;SDS011;25687;49.976;8.240;2023-11-21T11:01:46;5.57;;;3.27;;
803;SDS011;25687;49.976;8.240;2023-11-21T11:04:14;3.77;;;3.10;;
803;SDS011;25687;49.976;8.240;2023-11-21T11:06:51;7.17;;;3.43;;
803;SDS011;25687;49.976;8.240;2023-11-21T11:09:22;7.23;;;3.47;;
803;SDS011;25687;49.976;8.240;2023-11-21T11:11:47;5.33;;;2.50;;
803;SDS011;25687;49.976;8.240;2023-11-21T11:14:14;4.10;;;3.43;;
803;SDS011;25687;49.976;8.240;2023-11-21T11:16:39;6.70;;;3.00;;
803;SDS011;25687;49.976;8.240;2023-11-21T11:19:10;4.30;;;2.83;;
803;SDS011;25687;49.976;8.240;2023-11-21T11:29:57;6.13;;;2.80;;
803;SDS011;25687;49.976;8.240;2023-11-21T11:35:25;4.93;;;3.23;;
803;SDS011;25687;49.976;8.240;2023-11-21T11:37:58;5.97;;;3.30;;
803;SDS011;25687;49.976;8.240;2023-11-21T11:40:25;3.57;;;3.20;;
803;SDS011;25687;49.976;8.240;2023-11-21T11:43:05;6.97;;;3.60;;
803;SDS011;25687;49.976;8.240;2023-11-21T11:45:32;6.83;;;2.97;;
803;SDS011;25687;49.976;8.240;2023-11-21T11:47:59;6.77;;;3.57;;
803;SDS011;25687;49.976;8.240;2023-11-21T11:50:25;6.23;;;3.50;;
803;SDS011;25687;49.976;8.240;2023-11-21T11:52:55;8.10;;;3.83;;
803;SDS011;25687;49.976;8.240;2023-11-21T11:55:36;4.93;;;3.73;;
803;SDS011;25687;49.976;8.240;2023-11-21T11:58:01;4.70;;;3.83;;
803;SDS011;25687;49.976;8.240;2023-11-21T12:02:58;5.70;;;3.37;;
803;SDS011;25687;49.976;8.240;2023-11-21T12:05:27;7.20;;;3.20;;
803;SDS011;25687;49.976;8.240;2023-11-21T12:07:56;7.13;;;3.03;;
803;SDS011;25687;49.976;8.240;2023-11-21T12:10:23;5.70;;;3.57;;
803;SDS011;25687;49.976;8.240;2023-11-21T12:12:51;6.30;;;3.33;;
803;SDS011;25687;49.976;8.240;2023-11-21T12:15:18;5.50;;;3.20;;
803;SDS011;25687;49.976;8.240;2023-11-21T12:17:44;6.83;;;2.97;;
803;SDS011;25687;49.976;8.240;2023-11-21T12:20:11;3.53;;;2.70;;
803;SDS011;25687;49.976;8.240;2023-11-21T12:25:21;4.13;;;2.60;;
803;SDS011;25687;49.976;8.240;2023-11-21T12:27:51;4.30;;;2.80;;
803;SDS011;25687;49.976;8.240;2023-11-21T12:30:17;7.27;;;2.70;;
803;SDS011;25687;49.976;8.240;2023-11-21T12:32:53;4.30;;;2.93;;
803;SDS011;25687;49.976;8.240;2023-11-21T12:35:21;5.10;;;2.70;;
803;SDS011;25687;49.976;8.240;2023-11-21T12:37:47;6.73;;;3.00;;
803;SDS011;25687;49.976;8.240;2023-11-21T12:40:14;4.17;;;2.73;;
803;SDS011;25687;49.976;8.240;2023-11-21T12:42:40;6.63;;;4.00;;
803;SDS011;25687;49.976;8.240;2023-11-21T12:45:26;6.20;;;2.87;;
803;SDS011;25687;49.976;8.240;2023-11-21T12:47:59;3.30;;;2.53;;
803;SDS011;25687;49.976;8.240;2023-11-21T12:50:28;4.83;;;2.87;;
803;SDS011;25687;49.976;8.240;2023-11-21T12:52:59;4.67;;;2.40;;
803;SDS011;25687;49.976;8.240;2023-11-21T12:55:43;5.33;;;3.00;;
803;SDS011;25687;49.976;8.240;2023-11-21T12:58:14;5.13;;;2.77;;
803;SDS011;25687;49.976;8.240;2023-11-21T13:00:42;4.53;;;3.00;;
803;SDS011;25687;49.976;8.240;2023-11-21T13:03:10;8.93;;;4.07;;
803;SDS011;25687;49.976;8.240;2023-11-21T13:05:38;6.40;;;3.30;;
803;SDS011;25687;49.976;8.240;2023-11-21T13:08:07;6.40;;;4.37;;
803;SDS011;25687;49.976;8.240;2023-11-21T13:10:35;6.47;;;3.87;;
803;SDS011;25687;49.976;8.240;2023-11-21T13:13:02;7.33;;;3.73;;
803;SDS011;25687;49.976;8.240;2023-11-21T13:15:39;11.73;;;3.50;;
803;SDS011;25687;49.976;8.240;2023-11-21T13:18:09;4.63;;;3.60;;
803;SDS011;25687;49.976;8.240;2023-11-21T13:20:36;5.00;;;4.10;;
803;SDS011;25687;49.976;8.240;2023-11-21T13:23:06;6.63;;;4.17;;
803;SDS011;25687;49.976;8.240;2023-11-21T13:25:33;4.60;;;3.80;;
803;SDS011;25687;49.976;8.240;2023-11-21T13:27:59;8.00;;;3.77;;
803;SDS011;25687;49.976;8.240;2023-11-21T13:30:25;7.60;;;5.27;;
803;SDS011;25687;49.976;8.240;2023-11-21T13:32:55;8.77;;;6.83;;
803;SDS011;25687;49.976;8.240;2023-11-21T13:35:27;7.03;;;4.47;;
803;SDS011;25687;49.976;8.240;2023-11-21T13:37:57;4.93;;;3.73;;
803;SDS011;25687;49.976;8.240;2023-11-21T13:40:31;7.30;;;3.90;;
803;SDS011;25687;49.976;8.240;2023-11-21T13:43:00;7.60;;;4.77;;
803;SDS011;25687;49.976;8.240;2023-11-21T13:45:29;14.27;;;11.87;;
803;SDS011;25687;49.976;8.240;2023-11-21T13:47:55;6.93;;;5.07;;
803;SDS011;25687;49.976;8.240;2023-11-21T13:50:25;10.43;;;5.90;;
803;SDS011;25687;49.976;8.240;2023-11-21T13:53:00;7.83;;;5.53;;
803;SDS011;25687;49.976;8.240;2023-11-21T13:55:34;7.00;;;5.57;;
803;SDS011;25687;49.976;8.240;2023-11-21T13:58:00;10.53;;;7.03;;
803;SDS011;25687;49.976;8.240;2023-11-21T14:00:26;6.60;;;5.30;;
803;SDS011;25687;49.976;8.240;2023-11-21T14:03:09;8.60;;;6.07;;
803;SDS011;25687;49.976;8.240;2023-11-21T14:05:42;7.80;;;5.83;;
803;SDS011;25687;49.976;8.240;2023-11-21T14:08:11;6.40;;;5.20;;
803;SDS011;25687;49.976;8.240;2023-11-21T14:10:41;7.97;;;6.43;;
803;SDS011;25687;49.976;8.240;2023-11-21T14:13:11;5.23;;;4.73;;
803;SDS011;25687;49.976;8.240;2023-11-21T14:15:37;6.10;;;4.90;;
803;SDS011;25687;49.976;8.240;2023-11-21T14:18:07;7.30;;;5.30;;
803;SDS011;25687;49.976;8.240;2023-11-21T14:20:36;9.47;;;6.60;;
803;SDS011;25687;49.976;8.240;2023-11-21T14:23:02;5.87;;;4.60;;
803;SDS011;25687;49.976;8.240;2023-11-21T14:25:30;8.10;;;4.93;;
803;SDS011;25687;49.976;8.240;2023-11-21T14:27:57;5.17;;;4.67;;
803;SDS011;25687;49.976;8.240;2023-11-21T14:30:22;10.33;;;5.47;;
803;SDS011;25687;49.976;8.240;2023-11-21T14:32:48;6.60;;;4.50;;
803;SDS011;25687;49.976;8.240;2023-11-21T14:35:14;9.47;;;5.77;;
803;SDS011;25687;49.976;8.240;2023-11-21T14:37:40;8.77;;;6.17;;
803;SDS011;25687;49.976;8.240;2023-11-21T14:40:05;7.60;;;5.47;;
803;SDS011;25687;49.976;8.240;2023-11-21T14:42:32;11.53;;;6.13;;
803;SDS011;25687;49.976;8.240;2023-11-21T14:44:59;8.10;;;5.07;;
803;SDS011;25687;49.976;8.240;2023-11-21T14:47:28;7.07;;;4.53;;
803;SDS011;25687;49.976;8.240;2023-11-21T14:49:53;6.87;;;5.80;;
803;SDS011;25687;49.976;8.240;2023-11-21T14:52:21;10.30;;;5.77;;
803;SDS011;25687;49.976;8.240;2023-11-21T14:55:00;10.90;;;5.77;;
803;SDS011;25687;49.976;8.240;2023-11-21T14:57:46;6.07;;;5.27;;
803;SDS011;25687;49.976;8.240;2023-11-21T15:03:36;10.00;;;5.93;;
803;SDS011;25687;49.976;8.240;2023-11-21T15:06:14;7.33;;;6.20;;
803;SDS011;25687;49.976;8.240;2023-11-21T15:09:00;7.03;;;5.10;;
803;SDS011;25687;49.976;8.240;2023-11-21T15:11:34;8.00;;;6.00;;
803;SDS011;25687;49.976;8.240;2023-11-21T15:14:02;10.60;;;5.50;;
803;SDS011;25687;49.976;8.240;2023-11-21T15:16:32;9.20;;;5.50;;
803;SDS011;25687;49.976;8.240;2023-11-21T15:18:58;10.90;;;5.70;;
803;SDS011;25687;49.976;8.240;2023-11-21T15:21:23;13.87;;;6.63;;
803;SDS011;25687;49.976;8.240;2023-11-21T15:23:49;8.77;;;5.60;;
803;SDS011;25687;49.976;8.240;2023-11-21T15:26:15;9.03;;;6.43;;
803;SDS011;25687;49.976;8.240;2023-11-21T15:28:40;11.13;;;5.80;;
803;SDS011;25687;49.976;8.240;2023-11-21T15:31:05;8.40;;;5.60;;